createdAt,value
2023-04-25T00:02:43.959Z,5.82
2023-04-25T00:05:29.486Z,5.81
2023-04-25T00:08:14.827Z,5.81
2023-04-25T00:11:00.363Z,5.90
2023-04-25T00:13:45.793Z,5.83
2023-04-25T00:16:31.728Z,5.89
2023-04-25T00:19:17.410Z,5.85
2023-04-25T00:22:03.274Z,5.88
2023-04-25T00:24:48.538Z,5.80
2023-04-25T00:27:34.234Z,5.83
2023-04-25T00:30:19.590Z,5.87
2023-04-25T00:33:05.275Z,5.80
2023-04-25T00:35:50.358Z,5.84
2023-04-25T00:38:35.539Z,5.81
2023-04-25T00:41:20.872Z,5.80
2023-04-25T00:44:08.071Z,5.75
2023-04-25T00:46:55.197Z,5.76
2023-04-25T00:49:40.306Z,5.75
2023-04-25T00:52:25.516Z,5.73
2023-04-25T00:55:12.837Z,5.69
2023-04-25T00:57:58.524Z,5.71
2023-04-25T01:00:46.147Z,5.68
2023-04-25T01:03:34.247Z,5.62
2023-04-25T01:06:20.194Z,5.66
2023-04-25T01:09:05.506Z,5.74
2023-04-25T01:11:51.076Z,5.62
2023-04-25T01:14:36.178Z,5.64
2023-04-25T01:17:21.416Z,5.56
2023-04-25T01:20:07.397Z,5.57
2023-04-25T01:22:53.578Z,5.65
2023-04-25T01:25:39.526Z,5.53
2023-04-25T01:28:25.003Z,5.51
2023-04-25T01:31:10.171Z,5.43
2023-04-25T01:33:55.719Z,5.40
2023-04-25T01:36:41.155Z,5.37
2023-04-25T01:39:26.629Z,5.34
2023-04-25T01:42:13.747Z,5.43
2023-04-25T01:44:59.088Z,5.43
2023-04-25T01:47:45.346Z,5.37
2023-04-25T01:50:30.843Z,5.33
2023-04-25T01:53:16.304Z,5.32
2023-04-25T01:56:01.552Z,5.49
2023-04-25T01:58:47.540Z,5.67
2023-04-25T02:01:33.023Z,5.81
2023-04-25T02:04:18.615Z,5.72
2023-04-25T02:07:04.697Z,5.43
2023-04-25T02:09:49.672Z,5.35
2023-04-25T02:12:34.861Z,5.50
2023-04-25T02:15:19.894Z,5.68
2023-04-25T02:18:04.910Z,5.75
2023-04-25T02:20:50.091Z,5.71
2023-04-25T02:23:35.265Z,5.51
2023-04-25T02:26:20.735Z,5.53
2023-04-25T02:29:05.926Z,5.39
2023-04-25T02:31:51.487Z,5.48
2023-04-25T02:34:36.828Z,5.54
2023-04-25T02:37:22.403Z,5.51
2023-04-25T02:40:08.396Z,5.53
2023-04-25T02:42:53.635Z,5.66
2023-04-25T02:45:39.000Z,5.63
2023-04-25T02:48:23.942Z,5.63
2023-04-25T02:51:09.268Z,5.74
2023-04-25T02:53:54.765Z,5.78
2023-04-25T02:56:40.199Z,5.74
2023-04-25T02:59:25.516Z,5.74
2023-04-25T03:02:11.059Z,5.73
2023-04-25T03:04:56.061Z,5.75
2023-04-25T03:07:41.509Z,5.78
2023-04-25T03:10:27.161Z,5.90
2023-04-25T03:13:12.116Z,5.85
2023-04-25T03:15:57.359Z,5.96
2023-04-25T03:18:42.648Z,6.03
2023-04-25T03:21:28.099Z,6.10
2023-04-25T03:24:14.834Z,6.16
2023-04-25T03:27:00.096Z,6.11
2023-04-25T03:29:45.319Z,6.27
2023-04-25T03:32:30.805Z,6.36
2023-04-25T03:35:16.444Z,6.14
2023-04-25T03:38:01.592Z,6.07
2023-04-25T03:40:46.592Z,6.07
2023-04-25T03:43:31.878Z,6.19
2023-04-25T03:46:17.296Z,6.17
2023-04-25T03:49:02.794Z,6.25
2023-04-25T03:51:48.209Z,6.16
2023-04-25T03:54:33.590Z,6.27
2023-04-25T03:57:18.934Z,6.20
2023-04-25T04:00:04.475Z,6.34
2023-04-25T04:02:50.077Z,6.09
2023-04-25T04:05:35.400Z,5.97
2023-04-25T04:08:20.806Z,5.97
2023-04-25T04:11:05.812Z,5.99
2023-04-25T04:13:51.382Z,5.95
2023-04-25T04:16:36.897Z,6.05
2023-04-25T04:19:22.042Z,5.98
2023-04-25T04:22:07.626Z,5.84
2023-04-25T04:24:53.080Z,5.96
2023-04-25T04:27:38.633Z,5.91
2023-04-25T04:30:25.185Z,5.88
2023-04-25T04:33:10.393Z,5.82
2023-04-25T04:35:56.000Z,6.02
2023-04-25T04:38:41.999Z,5.94
2023-04-25T04:41:27.202Z,6.02
2023-04-25T04:44:12.734Z,5.90
2023-04-25T04:46:57.965Z,5.93
2023-04-25T04:49:43.343Z,5.87
2023-04-25T04:52:28.642Z,5.76
2023-04-25T04:55:13.575Z,5.81
2023-04-25T04:57:58.987Z,5.90
2023-04-25T05:00:44.019Z,5.90
2023-04-25T05:03:29.856Z,5.74
2023-04-25T05:06:15.032Z,5.76
2023-04-25T05:09:00.522Z,5.84
2023-04-25T05:11:45.373Z,5.96
2023-04-25T05:14:30.599Z,6.05
2023-04-25T05:17:15.778Z,6.07
2023-04-25T05:20:01.443Z,5.93
2023-04-25T05:22:46.386Z,5.99
2023-04-25T05:25:31.963Z,5.95
2023-04-25T05:28:17.390Z,5.80
2023-04-25T05:31:03.010Z,5.96
2023-04-25T05:33:48.461Z,6.08
2023-04-25T05:36:33.901Z,6.18
2023-04-25T05:39:19.250Z,6.11
2023-04-25T05:42:04.544Z,6.19
2023-04-25T05:44:49.640Z,6.32
2023-04-25T05:47:35.124Z,6.26
2023-04-25T05:50:20.577Z,6.36
2023-04-25T05:53:05.933Z,6.26
2023-04-25T05:55:50.975Z,6.28
2023-04-25T05:58:36.380Z,6.42
2023-04-25T06:01:22.608Z,6.30
2023-04-25T06:04:07.830Z,6.46
2023-04-25T06:06:53.161Z,6.58
2023-04-25T06:09:38.640Z,6.71
2023-04-25T06:12:23.570Z,6.87
2023-04-25T06:15:20.087Z,6.90
2023-04-25T06:18:12.519Z,7.02
2023-04-25T06:20:57.848Z,6.93
2023-04-25T06:23:43.387Z,6.95
2023-04-25T06:26:28.432Z,7.09
2023-04-25T06:29:13.954Z,6.92
2023-04-25T06:31:59.430Z,6.99
2023-04-25T06:34:44.474Z,6.84
2023-04-25T06:37:29.558Z,6.83
2023-04-25T06:40:15.150Z,7.05
2023-04-25T06:43:00.443Z,7.10
2023-04-25T06:45:47.709Z,7.14
2023-04-25T06:48:33.451Z,6.92
2023-04-25T06:51:18.916Z,7.05
2023-04-25T06:54:03.988Z,7.12
2023-04-25T06:56:49.278Z,7.11
2023-04-25T06:59:34.591Z,7.12
2023-04-25T07:02:20.128Z,7.10
2023-04-25T07:05:05.640Z,6.87
2023-04-25T07:07:50.758Z,7.16
2023-04-25T07:10:35.846Z,7.31
2023-04-25T07:13:21.342Z,7.45
2023-04-25T07:16:06.970Z,7.49
2023-04-25T07:18:52.134Z,7.53
2023-04-25T07:21:37.563Z,7.61
2023-04-25T07:24:22.983Z,7.60
2023-04-25T07:27:08.091Z,7.68
2023-04-25T07:29:53.046Z,7.44
2023-04-25T07:32:39.518Z,7.13
2023-04-25T07:35:24.751Z,7.44
2023-04-25T07:38:10.151Z,7.39
2023-04-25T07:40:55.163Z,7.64
2023-04-25T07:43:40.557Z,7.39
2023-04-25T07:46:26.080Z,7.40
2023-04-25T07:49:11.219Z,7.67
2023-04-25T07:51:56.391Z,7.39
2023-04-25T07:54:41.815Z,7.68
2023-04-25T07:57:27.140Z,7.69
2023-04-25T08:00:12.775Z,7.80
2023-04-25T08:02:58.108Z,7.85
2023-04-25T08:05:43.812Z,7.74
2023-04-25T08:08:29.304Z,7.75
2023-04-25T08:11:14.730Z,7.48
2023-04-25T08:14:00.215Z,7.65
2023-04-25T08:16:45.753Z,7.98
2023-04-25T08:19:31.700Z,8.21
2023-04-25T08:22:17.151Z,8.33
2023-04-25T08:25:02.506Z,8.36
2023-04-25T08:27:47.727Z,8.66
2023-04-25T08:30:33.148Z,9.10
2023-04-25T08:33:18.663Z,8.74
2023-04-25T08:36:04.161Z,8.88
2023-04-25T08:38:49.699Z,9.05
2023-04-25T08:41:37.900Z,9.08
2023-04-25T08:44:23.222Z,9.31
2023-04-25T08:47:08.312Z,9.32
2023-04-25T08:49:54.916Z,9.27
2023-04-25T08:52:47.855Z,9.16
2023-04-25T08:55:34.084Z,9.37
2023-04-25T08:58:20.374Z,9.43
2023-04-25T09:01:05.722Z,9.20
2023-04-25T09:03:51.368Z,9.52
2023-04-25T09:06:37.018Z,9.83
2023-04-25T09:09:22.611Z,9.75
2023-04-25T09:12:08.217Z,10.38
2023-04-25T09:15:07.689Z,11.26
2023-04-25T09:18:00.191Z,10.62
2023-04-25T09:21:00.945Z,10.36
2023-04-25T09:23:49.413Z,11.04
2023-04-25T09:26:34.757Z,11.72
2023-04-25T09:29:30.145Z,12.70
2023-04-25T09:32:16.774Z,11.36
2023-04-25T09:35:02.376Z,10.97
2023-04-25T09:37:47.305Z,11.59
2023-04-25T09:40:33.027Z,12.43
2023-04-25T09:43:23.033Z,12.98
2023-04-25T09:46:10.484Z,11.33
2023-04-25T09:48:55.882Z,10.57
2023-04-25T09:51:41.362Z,10.49
2023-04-25T09:54:26.873Z,10.23
2023-04-25T09:57:18.271Z,10.51
2023-04-25T10:00:03.854Z,10.06
2023-04-25T10:02:51.125Z,9.73
2023-04-25T10:05:38.174Z,9.28
2023-04-25T10:08:24.105Z,9.45
2023-04-25T10:11:09.990Z,9.50
2023-04-25T10:13:56.977Z,9.46
2023-04-25T10:16:43.379Z,9.60
2023-04-25T10:19:29.339Z,9.79
2023-04-25T10:22:30.406Z,9.90
2023-04-25T10:25:16.008Z,9.85
2023-04-25T10:28:01.407Z,9.83
2023-04-25T10:31:04.348Z,9.07
2023-04-25T10:33:49.856Z,9.05
2023-04-25T10:36:35.251Z,9.30
2023-04-25T10:39:25.767Z,9.51
2023-04-25T10:42:10.964Z,9.33
2023-04-25T10:45:06.376Z,9.32
2023-04-25T10:47:53.038Z,9.73
2023-04-25T10:50:39.403Z,10.04
2023-04-25T10:53:25.643Z,10.44
2023-04-25T10:56:21.040Z,10.33
2023-04-25T10:59:18.167Z,9.97
2023-04-25T11:02:12.821Z,10.27
2023-04-25T11:04:58.119Z,10.30
2023-04-25T11:08:06.312Z,10.73
2023-04-25T11:10:53.597Z,10.59
2023-04-25T11:13:38.881Z,10.51
2023-04-25T11:16:28.433Z,10.23
2023-04-25T11:19:14.006Z,9.81
2023-04-25T11:22:00.989Z,9.75
2023-04-25T11:24:46.641Z,9.51
2023-04-25T11:27:31.764Z,9.86
2023-04-25T11:30:18.305Z,9.97
2023-04-25T11:33:03.893Z,10.26
2023-04-25T11:35:49.225Z,10.24
2023-04-25T11:38:35.302Z,9.99
2023-04-25T11:41:21.423Z,9.60
2023-04-25T11:44:06.872Z,10.01
2023-04-25T11:46:52.208Z,10.06
2023-04-25T11:49:37.840Z,10.26
2023-04-25T11:52:23.776Z,10.37
2023-04-25T11:55:20.224Z,10.19
2023-04-25T11:58:06.087Z,9.81
2023-04-25T12:00:51.363Z,10.28
2023-04-25T12:03:47.054Z,10.23
2023-04-25T12:06:33.542Z,10.02
2023-04-25T12:09:29.082Z,11.69
2023-04-25T12:12:14.341Z,12.46
2023-04-25T12:15:10.006Z,13.09
2023-04-25T12:17:55.733Z,11.93
2023-04-25T12:20:42.689Z,10.62
2023-04-25T12:23:28.544Z,10.62
2023-04-25T12:26:15.306Z,10.90
2023-04-25T12:29:00.772Z,10.89
2023-04-25T12:31:46.285Z,11.23
2023-04-25T12:34:33.401Z,11.56
2023-04-25T12:37:18.877Z,12.31
2023-04-25T12:40:04.443Z,12.90
2023-04-25T12:42:49.848Z,13.90
2023-04-25T12:45:34.969Z,14.57
2023-04-25T12:48:21.359Z,14.01
2023-04-25T12:51:06.390Z,11.20
2023-04-25T12:53:52.074Z,11.75
2023-04-25T12:56:37.338Z,12.79
2023-04-25T12:59:22.660Z,13.41
2023-04-25T13:02:07.997Z,13.42
2023-04-25T13:04:53.257Z,14.16
2023-04-25T13:07:38.797Z,14.18
2023-04-25T13:10:23.787Z,13.30
2023-04-25T13:13:09.112Z,13.61
2023-04-25T13:15:54.189Z,12.83
2023-04-25T13:18:39.791Z,12.86
2023-04-25T13:21:25.076Z,12.70
2023-04-25T13:24:09.858Z,12.72
2023-04-25T13:26:55.317Z,12.65
2023-04-25T13:29:40.876Z,11.36
2023-04-25T13:32:26.284Z,10.80
2023-04-25T13:35:13.775Z,10.24
2023-04-25T13:37:59.477Z,10.01
2023-04-25T13:40:44.816Z,10.21
2023-04-25T13:43:29.817Z,10.30
2023-04-25T13:46:30.030Z,10.95
2023-04-25T13:49:20.717Z,11.35
2023-04-25T13:52:06.085Z,11.51
2023-04-25T13:54:51.320Z,11.48
2023-04-25T13:57:38.656Z,11.50
2023-04-25T14:00:24.793Z,10.94
2023-04-25T14:03:10.484Z,10.66
2023-04-25T14:05:56.005Z,10.77
2023-04-25T14:08:41.057Z,10.38
2023-04-25T14:11:26.629Z,10.27
2023-04-25T14:14:11.915Z,10.02
2023-04-25T14:16:57.469Z,10.00
2023-04-25T14:19:43.108Z,9.80
2023-04-25T14:22:28.445Z,9.52
2023-04-25T14:25:13.709Z,8.76
2023-04-25T14:27:58.891Z,8.42
2023-04-25T14:30:45.543Z,8.50
2023-04-25T14:33:30.939Z,8.31
2023-04-25T14:36:16.475Z,7.85
2023-04-25T14:39:01.790Z,7.67
2023-04-25T14:41:47.002Z,7.76
2023-04-25T14:44:32.561Z,7.55
2023-04-25T14:47:17.933Z,7.12
2023-04-25T14:50:03.893Z,7.29
2023-04-25T14:52:49.158Z,7.39
2023-04-25T14:55:34.467Z,7.09
2023-04-25T14:58:19.679Z,7.28
2023-04-25T15:01:05.220Z,7.36
2023-04-25T15:03:51.469Z,7.74
2023-04-25T15:06:37.042Z,8.12
2023-04-25T15:09:22.293Z,8.47
2023-04-25T15:12:08.272Z,8.68
2023-04-25T15:14:53.815Z,9.07
2023-04-25T15:17:41.678Z,9.33
2023-04-25T15:20:27.279Z,10.13
2023-04-25T15:23:12.557Z,10.80
2023-04-25T15:25:58.403Z,10.51
2023-04-25T15:28:43.786Z,10.44
2023-04-25T15:31:29.220Z,10.40
2023-04-25T15:34:14.704Z,10.18
2023-04-25T15:37:00.119Z,10.04
2023-04-25T15:39:45.557Z,9.52
2023-04-25T15:42:31.443Z,9.22
2023-04-25T15:45:19.032Z,9.19
2023-04-25T15:48:05.149Z,9.16
2023-04-25T15:50:50.733Z,9.01
2023-04-25T15:53:36.123Z,8.66
2023-04-25T15:56:21.576Z,8.58
2023-04-25T15:59:07.153Z,8.39
2023-04-25T16:01:52.813Z,8.16
2023-04-25T16:04:38.385Z,7.94
2023-04-25T16:07:23.933Z,7.96
2023-04-25T16:10:10.712Z,8.15
2023-04-25T16:12:56.065Z,8.22
2023-04-25T16:15:41.869Z,8.26
2023-04-25T16:18:27.562Z,8.07
2023-04-25T16:21:12.643Z,8.17
2023-04-25T16:23:58.503Z,8.26
2023-04-25T16:26:44.149Z,8.34
2023-04-25T16:29:29.836Z,8.54
2023-04-25T16:32:15.014Z,8.58
2023-04-25T16:35:01.060Z,8.77
2023-04-25T16:37:46.552Z,8.83
2023-04-25T16:40:31.373Z,8.98
2023-04-25T16:43:16.394Z,9.04
2023-04-25T16:46:01.661Z,9.04
2023-04-25T16:48:46.784Z,9.17
2023-04-25T16:51:32.713Z,9.40
2023-04-25T16:54:17.844Z,9.34
2023-04-25T16:57:03.235Z,9.27
2023-04-25T16:59:48.627Z,9.36
2023-04-25T17:02:33.723Z,9.27
2023-04-25T17:05:19.059Z,9.05
2023-04-25T17:08:04.731Z,9.23
2023-04-25T17:10:50.594Z,9.26
2023-04-25T17:13:36.113Z,9.47
2023-04-25T17:16:21.511Z,9.52
2023-04-25T17:19:07.118Z,9.39
2023-04-25T17:21:52.486Z,9.23
2023-04-25T17:24:37.966Z,9.37
2023-04-25T17:27:22.909Z,9.36
2023-04-25T17:30:08.775Z,9.27
2023-04-25T17:32:53.881Z,9.17
2023-04-25T17:35:39.237Z,9.18
2023-04-25T17:38:24.200Z,9.19
2023-04-25T17:41:10.424Z,9.05
2023-04-25T17:43:55.782Z,9.02
2023-04-25T17:46:41.243Z,9.10
2023-04-25T17:49:26.905Z,8.95
2023-04-25T17:52:12.301Z,8.79
2023-04-25T17:54:57.721Z,8.75
2023-04-25T17:57:43.238Z,8.72
2023-04-25T18:00:28.508Z,8.61
2023-04-25T18:03:14.374Z,8.60
2023-04-25T18:05:59.502Z,8.48
2023-04-25T18:08:44.924Z,8.30
2023-04-25T18:11:30.107Z,8.18
2023-04-25T18:14:15.773Z,8.08
2023-04-25T18:17:00.968Z,8.02
2023-04-25T18:19:50.150Z,7.84
2023-04-25T18:22:37.187Z,7.76
2023-04-25T18:25:22.772Z,7.45
2023-04-25T18:28:08.160Z,7.40
2023-04-25T18:30:53.393Z,7.27
2023-04-25T18:33:38.346Z,7.28
2023-04-25T18:36:23.403Z,7.28
2023-04-25T18:39:19.454Z,7.22
2023-04-25T18:42:07.844Z,7.18
2023-04-25T18:44:52.737Z,7.28
2023-04-25T18:47:38.257Z,7.26
2023-04-25T18:50:23.529Z,7.30
2023-04-25T18:53:08.465Z,7.30
2023-04-25T18:55:53.324Z,7.34
2023-04-25T18:58:39.107Z,7.33
2023-04-25T19:01:25.316Z,7.27
2023-04-25T19:04:10.862Z,7.25
2023-04-25T19:06:55.874Z,7.16
2023-04-25T19:09:40.838Z,7.14
2023-04-25T19:12:26.013Z,7.07
2023-04-25T19:15:11.609Z,7.08
2023-04-25T19:17:59.887Z,7.12
2023-04-25T19:20:45.337Z,7.07
2023-04-25T19:23:30.372Z,7.12
2023-04-25T19:26:15.906Z,7.01
2023-04-25T19:29:03.864Z,6.85
2023-04-25T19:31:49.449Z,6.93
2023-04-25T19:34:34.785Z,6.90
2023-04-25T19:37:20.548Z,6.77
2023-04-25T19:40:06.745Z,6.55
2023-04-25T19:42:52.176Z,6.54
2023-04-25T19:45:37.479Z,6.54
2023-04-25T19:48:22.730Z,6.43
2023-04-25T19:51:08.211Z,6.53
2023-04-25T19:53:54.132Z,6.56
2023-04-25T19:56:39.290Z,6.51
2023-04-25T19:59:24.414Z,6.45
2023-04-25T20:02:09.465Z,6.21
2023-04-25T20:04:54.813Z,6.26
2023-04-25T20:07:40.176Z,6.20
2023-04-25T20:10:25.553Z,6.25
2023-04-25T20:13:11.076Z,6.18
2023-04-25T20:15:56.485Z,6.20
2023-04-25T20:18:41.758Z,6.18
2023-04-25T20:21:26.926Z,6.19
2023-04-25T20:24:12.263Z,6.09
2023-04-25T20:26:58.154Z,5.96
2023-04-25T20:29:43.242Z,6.02
2023-04-25T20:32:30.545Z,6.03
2023-04-25T20:35:15.856Z,5.97
2023-04-25T20:38:00.712Z,5.78
2023-04-25T20:40:46.192Z,5.60
2023-04-25T20:43:31.848Z,5.57
2023-04-25T20:46:17.026Z,5.48
2023-04-25T20:49:02.439Z,5.22
2023-04-25T20:51:47.731Z,5.10
2023-04-25T20:54:32.690Z,5.22
2023-04-25T20:57:17.654Z,5.12
2023-04-25T21:00:03.472Z,5.05
2023-04-25T21:02:48.959Z,4.96
2023-04-25T21:05:34.576Z,4.89
2023-04-25T21:08:19.718Z,4.68
2023-04-25T21:11:04.964Z,4.42
2023-04-25T21:13:50.377Z,4.20
2023-04-25T21:16:35.860Z,4.09
2023-04-25T21:19:21.259Z,4.06
2023-04-25T21:22:06.569Z,4.15
2023-04-25T21:24:51.500Z,4.24
2023-04-25T21:27:36.988Z,4.17
2023-04-25T21:30:23.971Z,4.09
2023-04-25T21:33:09.207Z,4.10
2023-04-25T21:35:54.482Z,4.19
2023-04-25T21:38:39.677Z,4.26
2023-04-25T21:41:24.960Z,4.32
2023-04-25T21:44:10.064Z,4.19
2023-04-25T21:46:55.430Z,4.18
2023-04-25T21:49:40.577Z,4.26
2023-04-25T21:52:26.566Z,4.16
2023-04-25T21:55:11.895Z,4.03
2023-04-25T21:57:57.442Z,3.97
2023-04-25T22:00:42.874Z,3.82
2023-04-25T22:03:28.422Z,3.82
2023-04-25T22:06:13.657Z,3.77
2023-04-25T22:08:58.762Z,3.71
2023-04-25T22:11:44.066Z,3.78
2023-04-25T22:14:29.726Z,3.65
2023-04-25T22:17:15.169Z,3.44
2023-04-25T22:20:00.949Z,3.43
2023-04-25T22:22:46.379Z,3.48
2023-04-25T22:25:32.017Z,3.58
2023-04-25T22:28:17.426Z,3.54
2023-04-25T22:31:02.770Z,3.59
2023-04-25T22:33:48.333Z,3.41
2023-04-25T22:36:34.151Z,3.07
2023-04-25T22:39:19.355Z,2.83
2023-04-25T22:42:04.385Z,2.69
2023-04-25T22:44:49.812Z,2.67
2023-04-25T22:47:36.391Z,2.70
2023-04-25T22:50:21.416Z,2.63
2023-04-25T22:53:09.684Z,2.52
2023-04-25T22:55:55.822Z,2.46
2023-04-25T22:58:40.780Z,2.66
2023-04-25T23:01:25.783Z,2.82
2023-04-25T23:04:11.363Z,2.84
2023-04-25T23:06:57.247Z,2.79
2023-04-25T23:09:42.783Z,2.82
2023-04-25T23:12:28.018Z,2.67
2023-04-25T23:15:13.034Z,2.64
2023-04-25T23:17:58.454Z,2.69
2023-04-25T23:20:43.550Z,2.51
2023-04-25T23:23:28.852Z,2.43
2023-04-25T23:26:14.185Z,2.42
2023-04-25T23:28:59.779Z,2.69
2023-04-25T23:31:45.049Z,2.82
2023-04-25T23:34:30.856Z,2.82
2023-04-25T23:37:16.075Z,2.78
2023-04-25T23:40:01.598Z,2.75
2023-04-25T23:42:46.686Z,2.62
2023-04-25T23:45:32.032Z,2.56
2023-04-25T23:48:17.269Z,2.68
2023-04-25T23:51:02.422Z,2.77
2023-04-25T23:53:47.504Z,2.71
2023-04-25T23:56:32.979Z,2.77
2023-04-25T23:59:18.574Z,2.85
